HYS2HV LRTM-LROP
Flight info
| Callsign | HYS2HV |
|---|---|
| Flight time | 0h 41m |
| Altitude | 29000 |
| Route | IRLOX DCT BIVBU DCT TOSVI |
| Aircraft | A320/M-SDE3FGHIRWY/LB1 |
Departure
| Time | 2026-05-07 19:30 |
|---|---|
| Airport | Târgu Mureş Transilvania International Airport (LRTM) |
Arrival
| Time | 2026-05-07 20:11 |
|---|---|
| Airport | Bucharest Henri Coandă International Airport (LROP) |
| Time | Latitude | Longitude | Altitude | Speed | Heading |
|---|---|---|---|---|---|
| 2026-05-07 19:07 | 46.46822 | 24.42423 | 972 ft | 0 kts | 342° |
| 2026-05-07 19:21 | 46.46837 | 24.42416 | 979 ft | 4 kts | 339° |
| 2026-05-07 19:22 | 46.46845 | 24.42358 | 976 ft | 8 kts | 259° |
| 2026-05-07 19:22 | 46.46852 | 24.42279 | 972 ft | 2 kts | 343° |
| 2026-05-07 19:22 | 46.46853 | 24.42278 | 972 ft | 0 kts | 343° |
| 2026-05-07 19:26 | 46.46871 | 24.42271 | 982 ft | 5 kts | 343° |
| 2026-05-07 19:27 | 46.46942 | 24.42228 | 975 ft | 18 kts | 314° |
| 2026-05-07 19:27 | 46.46920 | 24.41996 | 980 ft | 33 kts | 253° |
| 2026-05-07 19:27 | 46.46831 | 24.41542 | 980 ft | 60 kts | 254° |
| 2026-05-07 19:27 | 46.46703 | 24.40895 | 967 ft | 64 kts | 254° |
| 2026-05-07 19:28 | 46.46620 | 24.40464 | 984 ft | 32 kts | 254° |
| 2026-05-07 19:28 | 46.46563 | 24.40169 | 983 ft | 20 kts | 254° |
| 2026-05-07 19:28 | 46.46515 | 24.40050 | 980 ft | 12 kts | 244° |
| 2026-05-07 19:28 | 46.46534 | 24.40028 | 983 ft | 4 kts | 45° |
| 2026-05-07 19:29 | 46.46544 | 24.40063 | 984 ft | 4 kts | 75° |
| 2026-05-07 19:29 | 46.46582 | 24.40261 | 976 ft | 54 kts | 74° |
| 2026-05-07 19:29 | 46.46753 | 24.41130 | 968 ft | 120 kts | 74° |
| 2026-05-07 19:29 | 46.47024 | 24.42499 | 1150 ft | 149 kts | 73° |
| 2026-05-07 19:30 | 46.47306 | 24.43932 | 1801 ft | 148 kts | 74° |
| 2026-05-07 19:30 | 46.47585 | 24.45368 | 2392 ft | 148 kts | 73° |
| 2026-05-07 19:30 | 46.47879 | 24.46888 | 2661 ft | 167 kts | 73° |
| 2026-05-07 19:30 | 46.48217 | 24.48629 | 2860 ft | 191 kts | 73° |
| 2026-05-07 19:31 | 46.48600 | 24.50596 | 3143 ft | 214 kts | 73° |
| 2026-05-07 19:31 | 46.49024 | 24.52792 | 3460 ft | 238 kts | 74° |
| 2026-05-07 19:31 | 46.49366 | 24.54567 | 3732 ft | 256 kts | 75° |
| 2026-05-07 19:31 | 46.49852 | 24.57158 | 4234 ft | 273 kts | 79° |
| 2026-05-07 19:32 | 46.49797 | 24.59897 | 5018 ft | 275 kts | 107° |
| 2026-05-07 19:32 | 46.49284 | 24.61776 | 5652 ft | 274 kts | 123° |
| 2026-05-07 19:32 | 46.48045 | 24.63825 | 6531 ft | 270 kts | 147° |
| 2026-05-07 19:32 | 46.46362 | 24.64949 | 7346 ft | 267 kts | 171° |
| 2026-05-07 19:33 | 46.44520 | 24.64963 | 8151 ft | 267 kts | 193° |
| 2026-05-07 19:33 | 46.42827 | 24.63897 | 8962 ft | 268 kts | 216° |
| 2026-05-07 19:33 | 46.41557 | 24.61910 | 9759 ft | 273 kts | 238° |
| 2026-05-07 19:33 | 46.40848 | 24.59318 | 10371 ft | 285 kts | 250° |
| 2026-05-07 19:34 | 46.40234 | 24.56463 | 10568 ft | 308 kts | 250° |
| 2026-05-07 19:34 | 46.39587 | 24.53379 | 10697 ft | 331 kts | 251° |
| 2026-05-07 19:34 | 46.38896 | 24.50092 | 10885 ft | 349 kts | 251° |
| 2026-05-07 19:34 | 46.38182 | 24.46694 | 11412 ft | 355 kts | 251° |
| 2026-05-07 19:35 | 46.37271 | 24.43368 | 11996 ft | 357 kts | 238° |
| 2026-05-07 19:35 | 46.35688 | 24.40608 | 12593 ft | 358 kts | 219° |
| 2026-05-07 19:35 | 46.33555 | 24.38765 | 13186 ft | 360 kts | 200° |
| 2026-05-07 19:35 | 46.31118 | 24.37874 | 13780 ft | 364 kts | 192° |
| 2026-05-07 19:36 | 46.28626 | 24.37147 | 14316 ft | 367 kts | 192° |
| 2026-05-07 19:36 | 46.26107 | 24.36426 | 14816 ft | 370 kts | 192° |
| 2026-05-07 19:36 | 46.23566 | 24.35699 | 15313 ft | 374 kts | 192° |
| 2026-05-07 19:36 | 46.21009 | 24.34964 | 15911 ft | 372 kts | 192° |
| 2026-05-07 19:37 | 46.18536 | 24.34251 | 17175 ft | 352 kts | 192° |
| 2026-05-07 19:37 | 46.16212 | 24.33580 | 18274 ft | 329 kts | 193° |
| 2026-05-07 19:37 | 46.14004 | 24.32938 | 18677 ft | 320 kts | 193° |
| 2026-05-07 19:37 | 46.11834 | 24.32303 | 18901 ft | 317 kts | 193° |
| 2026-05-07 19:38 | 46.09670 | 24.31668 | 19009 ft | 317 kts | 193° |
| 2026-05-07 19:38 | 46.07508 | 24.31032 | 19027 ft | 317 kts | 193° |
| 2026-05-07 19:38 | 46.05354 | 24.30407 | 19043 ft | 317 kts | 193° |
| 2026-05-07 19:38 | 46.03193 | 24.29784 | 19045 ft | 317 kts | 193° |
| 2026-05-07 19:39 | 46.01030 | 24.29159 | 19036 ft | 317 kts | 193° |
| 2026-05-07 19:39 | 45.98863 | 24.28536 | 19050 ft | 318 kts | 193° |
| 2026-05-07 19:39 | 45.96688 | 24.27912 | 19039 ft | 319 kts | 193° |
| 2026-05-07 19:39 | 45.94511 | 24.27286 | 19039 ft | 319 kts | 193° |
| 2026-05-07 19:40 | 45.92335 | 24.26656 | 19056 ft | 319 kts | 193° |
| 2026-05-07 19:40 | 45.90182 | 24.26033 | 19042 ft | 309 kts | 193° |
| 2026-05-07 19:40 | 45.88117 | 24.25438 | 19053 ft | 296 kts | 193° |
| 2026-05-07 19:40 | 45.86139 | 24.24872 | 19056 ft | 284 kts | 193° |
| 2026-05-07 19:41 | 45.84212 | 24.24318 | 19045 ft | 282 kts | 193° |
| 2026-05-07 19:41 | 45.82294 | 24.23765 | 19060 ft | 281 kts | 193° |
| 2026-05-07 19:41 | 45.80378 | 24.23213 | 19060 ft | 281 kts | 193° |
| 2026-05-07 19:41 | 45.78460 | 24.22663 | 19056 ft | 281 kts | 193° |
| 2026-05-07 19:42 | 45.76540 | 24.22113 | 19052 ft | 281 kts | 193° |
| 2026-05-07 19:42 | 45.74621 | 24.21561 | 19061 ft | 281 kts | 193° |
| 2026-05-07 19:42 | 45.72702 | 24.21009 | 19061 ft | 281 kts | 193° |
| 2026-05-07 19:42 | 45.70811 | 24.20468 | 19056 ft | 281 kts | 193° |
| 2026-05-07 19:43 | 45.68899 | 24.19922 | 19056 ft | 280 kts | 193° |
| 2026-05-07 19:43 | 45.66991 | 24.19376 | 19059 ft | 279 kts | 193° |
| 2026-05-07 19:43 | 45.65077 | 24.18886 | 19060 ft | 280 kts | 188° |
| 2026-05-07 19:43 | 45.63128 | 24.18710 | 19060 ft | 282 kts | 181° |
| 2026-05-07 19:44 | 45.61170 | 24.18883 | 19063 ft | 283 kts | 175° |
| 2026-05-07 19:44 | 45.59221 | 24.19295 | 19061 ft | 284 kts | 174° |
| 2026-05-07 19:44 | 45.57260 | 24.19710 | 19069 ft | 285 kts | 174° |
| 2026-05-07 19:44 | 45.55293 | 24.20124 | 19070 ft | 286 kts | 174° |
| 2026-05-07 19:45 | 45.53321 | 24.20537 | 19073 ft | 287 kts | 174° |
| 2026-05-07 19:45 | 45.51349 | 24.20948 | 19067 ft | 286 kts | 174° |
| 2026-05-07 19:45 | 45.49379 | 24.21355 | 19073 ft | 286 kts | 175° |
| 2026-05-07 19:45 | 45.47409 | 24.21761 | 19073 ft | 287 kts | 174° |
| 2026-05-07 19:46 | 45.45435 | 24.22169 | 19071 ft | 287 kts | 174° |
| 2026-05-07 19:46 | 45.43458 | 24.22579 | 19074 ft | 287 kts | 174° |
| 2026-05-07 19:46 | 45.41484 | 24.22988 | 19080 ft | 287 kts | 174° |
| 2026-05-07 19:46 | 45.39512 | 24.23398 | 19078 ft | 286 kts | 174° |
| 2026-05-07 19:47 | 45.37543 | 24.23806 | 19078 ft | 286 kts | 174° |
| 2026-05-07 19:47 | 45.35573 | 24.24213 | 19077 ft | 286 kts | 175° |
| 2026-05-07 19:47 | 45.33603 | 24.24619 | 19076 ft | 286 kts | 175° |
| 2026-05-07 19:47 | 45.31628 | 24.25029 | 19079 ft | 287 kts | 175° |
| 2026-05-07 19:48 | 45.29653 | 24.25440 | 19079 ft | 287 kts | 175° |
| 2026-05-07 19:48 | 45.28050 | 24.25773 | 19074 ft | 287 kts | 174° |
| 2026-05-07 19:49 | 45.26853 | 24.25996 | 19057 ft | 286 kts | 175° |
| 2026-05-07 19:49 | 45.24880 | 24.26366 | 19079 ft | 286 kts | 175° |
| 2026-05-07 19:49 | 45.22909 | 24.26775 | 19081 ft | 286 kts | 174° |
| 2026-05-07 19:49 | 45.20939 | 24.27197 | 19075 ft | 286 kts | 174° |
| 2026-05-07 19:50 | 45.18968 | 24.27618 | 19074 ft | 286 kts | 174° |
| 2026-05-07 19:50 | 45.16999 | 24.28037 | 19076 ft | 286 kts | 174° |
| 2026-05-07 19:50 | 45.15028 | 24.28451 | 19075 ft | 287 kts | 174° |
| 2026-05-07 19:50 | 45.13049 | 24.28863 | 19076 ft | 288 kts | 174° |
| 2026-05-07 19:51 | 45.11066 | 24.29274 | 19078 ft | 288 kts | 174° |
| 2026-05-07 19:51 | 45.09083 | 24.29697 | 19079 ft | 289 kts | 171° |
| 2026-05-07 19:51 | 45.07210 | 24.30750 | 19079 ft | 295 kts | 148° |
| 2026-05-07 19:51 | 45.05760 | 24.32814 | 19074 ft | 301 kts | 123° |
| 2026-05-07 19:52 | 45.04822 | 24.35481 | 19069 ft | 304 kts | 117° |
| 2026-05-07 19:52 | 45.03934 | 24.38200 | 19070 ft | 305 kts | 117° |
| 2026-05-07 19:52 | 45.03060 | 24.40882 | 19006 ft | 304 kts | 117° |
| 2026-05-07 19:52 | 45.02178 | 24.43593 | 18764 ft | 303 kts | 117° |
| 2026-05-07 19:53 | 45.01301 | 24.46292 | 18533 ft | 301 kts | 117° |
| 2026-05-07 19:53 | 45.00422 | 24.48973 | 18293 ft | 300 kts | 117° |
| 2026-05-07 19:53 | 44.99545 | 24.51638 | 18027 ft | 299 kts | 118° |
| 2026-05-07 19:53 | 44.98670 | 24.54298 | 17771 ft | 298 kts | 117° |
| 2026-05-07 19:54 | 44.98344 | 24.55288 | 17664 ft | 297 kts | 117° |
| 2026-05-07 19:54 | 44.97830 | 24.56853 | 17500 ft | 296 kts | 117° |
| 2026-05-07 19:55 | 44.96963 | 24.59484 | 17236 ft | 295 kts | 118° |
| 2026-05-07 19:55 | 44.96100 | 24.62104 | 16983 ft | 294 kts | 118° |
| 2026-05-07 19:55 | 44.95240 | 24.64712 | 16714 ft | 292 kts | 118° |
| 2026-05-07 19:55 | 44.94385 | 24.67303 | 16426 ft | 290 kts | 118° |
| 2026-05-07 19:56 | 44.93533 | 24.69878 | 16145 ft | 289 kts | 118° |
| 2026-05-07 19:56 | 44.92683 | 24.72443 | 15850 ft | 288 kts | 118° |
| 2026-05-07 19:56 | 44.91839 | 24.74994 | 15589 ft | 286 kts | 118° |
| 2026-05-07 19:56 | 44.91000 | 24.77528 | 15331 ft | 283 kts | 118° |
| 2026-05-07 19:57 | 44.90168 | 24.80033 | 15077 ft | 281 kts | 118° |
| 2026-05-07 19:57 | 44.89340 | 24.82524 | 14808 ft | 280 kts | 118° |
| 2026-05-07 19:57 | 44.88520 | 24.85000 | 14551 ft | 278 kts | 118° |
| 2026-05-07 19:57 | 44.87701 | 24.87465 | 14288 ft | 277 kts | 118° |
| 2026-05-07 19:58 | 44.86883 | 24.89920 | 14006 ft | 276 kts | 118° |
| 2026-05-07 19:58 | 44.86038 | 24.92442 | 13278 ft | 292 kts | 118° |
| 2026-05-07 19:58 | 44.85196 | 24.94959 | 13096 ft | 286 kts | 118° |
| 2026-05-07 19:58 | 44.84330 | 24.97545 | 12815 ft | 304 kts | 118° |
| 2026-05-07 19:59 | 44.83362 | 25.00404 | 12560 ft | 342 kts | 118° |
| 2026-05-07 19:59 | 44.82287 | 25.03579 | 12298 ft | 375 kts | 118° |
| 2026-05-07 19:59 | 44.81141 | 25.06980 | 12028 ft | 384 kts | 118° |
| 2026-05-07 19:59 | 44.80029 | 25.10317 | 11781 ft | 369 kts | 118° |
| 2026-05-07 20:00 | 44.78967 | 25.13517 | 11644 ft | 353 kts | 118° |
| 2026-05-07 20:00 | 44.77948 | 25.16587 | 11519 ft | 339 kts | 118° |
| 2026-05-07 20:00 | 44.76961 | 25.19537 | 11392 ft | 327 kts | 118° |
| 2026-05-07 20:00 | 44.76004 | 25.22384 | 11271 ft | 316 kts | 119° |
| 2026-05-07 20:01 | 44.75076 | 25.25135 | 11142 ft | 306 kts | 119° |
| 2026-05-07 20:01 | 44.74173 | 25.27801 | 11026 ft | 297 kts | 119° |
| 2026-05-07 20:01 | 44.73297 | 25.30389 | 10880 ft | 289 kts | 119° |
| 2026-05-07 20:01 | 44.72438 | 25.32925 | 10621 ft | 286 kts | 119° |
| 2026-05-07 20:02 | 44.71583 | 25.35442 | 10366 ft | 284 kts | 119° |
| 2026-05-07 20:02 | 44.70730 | 25.37949 | 10204 ft | 284 kts | 119° |
| 2026-05-07 20:02 | 44.69875 | 25.40454 | 10067 ft | 284 kts | 119° |
| 2026-05-07 20:02 | 44.69020 | 25.42961 | 9791 ft | 287 kts | 119° |
| 2026-05-07 20:03 | 44.68440 | 25.44654 | 9469 ft | 290 kts | 119° |
| 2026-05-07 20:03 | 44.67578 | 25.47174 | 9305 ft | 283 kts | 119° |
| 2026-05-07 20:03 | 44.66449 | 25.50479 | 8738 ft | 287 kts | 119° |
| 2026-05-07 20:03 | 44.65582 | 25.53014 | 8359 ft | 288 kts | 118° |
| 2026-05-07 20:04 | 44.64717 | 25.55548 | 8023 ft | 287 kts | 118° |
| 2026-05-07 20:04 | 44.63857 | 25.58070 | 7737 ft | 285 kts | 118° |
| 2026-05-07 20:04 | 44.63280 | 25.59762 | 7535 ft | 284 kts | 118° |
| 2026-05-07 20:04 | 44.62414 | 25.62293 | 6969 ft | 293 kts | 118° |
| 2026-05-07 20:05 | 44.61520 | 25.64901 | 6410 ft | 300 kts | 118° |
| 2026-05-07 20:05 | 44.60605 | 25.67566 | 5833 ft | 307 kts | 118° |
| 2026-05-07 20:05 | 44.59668 | 25.70292 | 5205 ft | 314 kts | 118° |
| 2026-05-07 20:05 | 44.58709 | 25.73075 | 4572 ft | 320 kts | 117° |
| 2026-05-07 20:06 | 44.57738 | 25.75895 | 3938 ft | 325 kts | 117° |
| 2026-05-07 20:06 | 44.56774 | 25.78698 | 3329 ft | 319 kts | 117° |
| 2026-05-07 20:06 | 44.55990 | 25.81595 | 2727 ft | 310 kts | 102° |
| 2026-05-07 20:06 | 44.55828 | 25.84498 | 2525 ft | 289 kts | 86° |
| 2026-05-07 20:07 | 44.56024 | 25.87176 | 2503 ft | 263 kts | 83° |
| 2026-05-07 20:07 | 44.56213 | 25.89609 | 2505 ft | 239 kts | 84° |
| 2026-05-07 20:07 | 44.56384 | 25.91803 | 2490 ft | 212 kts | 84° |
| 2026-05-07 20:07 | 44.56533 | 25.93733 | 2351 ft | 193 kts | 84° |
| 2026-05-07 20:08 | 44.56670 | 25.95496 | 2136 ft | 171 kts | 84° |
| 2026-05-07 20:08 | 44.56793 | 25.97089 | 1911 ft | 160 kts | 84° |
| 2026-05-07 20:08 | 44.56911 | 25.98617 | 1705 ft | 156 kts | 84° |
| 2026-05-07 20:08 | 44.57026 | 26.00111 | 1501 ft | 153 kts | 84° |
| 2026-05-07 20:09 | 44.57140 | 26.01586 | 1301 ft | 151 kts | 84° |
| 2026-05-07 20:09 | 44.57254 | 26.03040 | 1114 ft | 149 kts | 84° |
| 2026-05-07 20:09 | 44.57365 | 26.04463 | 898 ft | 144 kts | 85° |
| 2026-05-07 20:10 | 44.57569 | 26.07221 | 537 ft | 141 kts | 83° |
| 2026-05-07 20:10 | 44.57679 | 26.08585 | 358 ft | 138 kts | 84° |
| 2026-05-07 20:10 | 44.57767 | 26.09781 | 322 ft | 105 kts | 84° |
| 2026-05-07 20:10 | 44.57825 | 26.10570 | 318 ft | 57 kts | 84° |
| 2026-05-07 20:11 | 44.57848 | 26.10879 | 314 ft | 7 kts | 84° |
| 2026-05-07 20:11 | 44.57848 | 26.10885 | 314 ft | 0 kts | 84° |
| 2026-05-07 20:12 | 44.57824 | 26.10926 | 313 ft | 15 kts | 135° |
| 2026-05-07 20:12 | 44.57763 | 26.11123 | 311 ft | 18 kts | 116° |
| 2026-05-07 20:12 | 44.57697 | 26.11122 | 312 ft | 9 kts | 257° |
| 2026-05-07 20:12 | 44.57686 | 26.11016 | 314 ft | 13 kts | 264° |
| 2026-05-07 20:13 | 44.57676 | 26.10872 | 313 ft | 17 kts | 263° |
| 2026-05-07 20:13 | 44.57665 | 26.10687 | 316 ft | 20 kts | 263° |
| 2026-05-07 20:13 | 44.57651 | 26.10490 | 321 ft | 21 kts | 261° |
| 2026-05-07 20:13 | 44.57631 | 26.10269 | 321 ft | 25 kts | 268° |
| 2026-05-07 20:14 | 44.57617 | 26.10050 | 324 ft | 22 kts | 265° |
| 2026-05-07 20:14 | 44.57603 | 26.09911 | 321 ft | 5 kts | 263° |
| 2026-05-07 20:14 | 44.57603 | 26.09910 | 321 ft | 0 kts | 263° |
| 2026-05-07 20:16 | 44.57599 | 26.09871 | 320 ft | 0 kts | 263° |
| 2026-05-07 20:16 | 44.57598 | 26.09853 | 320 ft | 5 kts | 264° |
| 2026-05-07 20:16 | 44.57592 | 26.09771 | 319 ft | 12 kts | 264° |
| 2026-05-07 20:17 | 44.57583 | 26.09634 | 319 ft | 16 kts | 265° |
| 2026-05-07 20:17 | 44.57569 | 26.09451 | 317 ft | 21 kts | 263° |
| 2026-05-07 20:17 | 44.57551 | 26.09222 | 317 ft | 25 kts | 263° |
| 2026-05-07 20:17 | 44.57536 | 26.08957 | 318 ft | 29 kts | 261° |
| 2026-05-07 20:18 | 44.57512 | 26.08728 | 324 ft | 20 kts | 264° |
| 2026-05-07 20:18 | 44.57497 | 26.08536 | 323 ft | 16 kts | 263° |
| 2026-05-07 20:18 | 44.57400 | 26.08478 | 321 ft | 19 kts | 170° |
| 2026-05-07 20:18 | 44.57272 | 26.08500 | 319 ft | 17 kts | 176° |
| 2026-05-07 20:19 | 44.57247 | 26.08492 | 318 ft | 1 kts | 218° |
| 2026-05-07 20:19 | 44.57238 | 26.08475 | 318 ft | 2 kts | 242° |
| 2026-05-07 20:19 | 44.57231 | 26.08426 | 317 ft | 8 kts | 263° |
| 2026-05-07 20:19 | 44.57224 | 26.08318 | 317 ft | 13 kts | 265° |
| 2026-05-07 20:20 | 44.57213 | 26.08183 | 317 ft | 14 kts | 263° |
| 2026-05-07 20:20 | 44.57206 | 26.08098 | 317 ft | 7 kts | 263° |
| 2026-05-07 20:20 | 44.57203 | 26.08065 | 317 ft | 4 kts | 258° |
| 2026-05-07 20:20 | 44.57175 | 26.08053 | 317 ft | 5 kts | 183° |
| 2026-05-07 20:21 | 44.57146 | 26.08057 | 317 ft | 2 kts | 174° |
| 2026-05-07 20:21 | 44.57138 | 26.08058 | 317 ft | 1 kts | 174° |